Time;durP1;ratioP1;P1;durP2;ratioP2;P2;SDS_P1;SDS_P2;PMS_P1;PMS_P2;Temp;Humidity;BMP_temperature;BMP_pressure;BME280_temperature;BME280_humidity;BME280_pressure;Samples;Min_cycle;Max_cycle;Signal;HPM_P1;HPM_P2
2023/01/22 00:00:39;;;;;;;4.20;2.13;;;1.60;99.90;;;;;;4971319;28;20571;-52
2023/01/22 00:03:06;;;;;;;2.20;2.10;;;1.60;99.90;;;;;;4973730;28;20504;-52
2023/01/22 00:05:32;;;;;;;2.17;2.00;;;1.60;99.90;;;;;;4972782;28;20531;-52
2023/01/22 00:07:59;;;;;;;3.33;2.47;;;1.60;99.90;;;;;;4968006;28;20568;-51
2023/01/22 00:10:25;;;;;;;2.83;2.53;;;1.60;99.90;;;;;;4967940;28;20517;-52
2023/01/22 00:12:53;;;;;;;2.77;2.60;;;1.50;99.90;;;;;;4971956;28;20548;-52
2023/01/22 00:15:20;;;;;;;2.40;2.20;;;1.50;99.90;;;;;;4968973;28;20500;-52
2023/01/22 00:17:46;;;;;;;2.90;2.70;;;1.50;99.90;;;;;;4969733;28;20911;-53
2023/01/22 00:20:13;;;;;;;2.70;2.50;;;1.60;99.90;;;;;;4967534;28;21061;-52
2023/01/22 00:22:40;;;;;;;3.23;2.80;;;1.50;99.90;;;;;;4972227;28;20474;-53
2023/01/22 00:25:10;;;;;;;3.27;2.90;;;1.50;99.90;;;;;;4972135;28;20527;-51
2023/01/22 00:27:36;;;;;;;3.60;3.30;;;1.50;99.90;;;;;;4973711;28;20461;-51
2023/01/22 00:30:05;;;;;;;3.90;3.60;;;1.60;99.90;;;;;;4971870;28;20554;-51
2023/01/22 00:32:32;;;;;;;5.07;4.10;;;1.50;99.90;;;;;;4972657;28;20587;-51
2023/01/22 00:34:59;;;;;;;3.70;3.40;;;1.50;99.90;;;;;;4971962;28;20476;-51
2023/01/22 00:37:25;;;;;;;4.80;3.30;;;1.50;99.90;;;;;;4971978;28;20493;-51
2023/01/22 00:39:52;;;;;;;5.40;4.33;;;1.50;99.90;;;;;;4973333;28;20528;-51
2023/01/22 00:42:18;;;;;;;5.13;4.63;;;1.50;99.90;;;;;;4973538;28;20496;-51
2023/01/22 00:44:45;;;;;;;4.13;3.43;;;1.50;99.90;;;;;;4972466;28;20551;-51
2023/01/22 00:47:12;;;;;;;4.70;3.30;;;1.50;99.90;;;;;;4973410;28;20493;-53
2023/01/22 00:49:39;;;;;;;3.43;3.13;;;1.50;99.90;;;;;;4972042;28;20492;-52
2023/01/22 00:52:05;;;;;;;3.43;3.20;;;1.50;99.90;;;;;;4972946;28;20616;-53
2023/01/22 00:54:32;;;;;;;3.93;3.27;;;1.50;99.90;;;;;;4973192;28;20568;-52
2023/01/22 00:56:58;;;;;;;7.70;3.47;;;1.60;99.90;;;;;;4967745;28;20576;-52
2023/01/22 00:59:25;;;;;;;4.97;3.80;;;1.50;99.90;;;;;;4972896;28;20583;-53
2023/01/22 01:01:51;;;;;;;4.00;3.60;;;1.50;99.90;;;;;;4969991;28;20558;-53
2023/01/22 01:04:19;;;;;;;3.57;3.10;;;1.50;99.90;;;;;;4972259;28;21008;-52
2023/01/22 01:06:46;;;;;;;4.27;3.40;;;1.40;99.90;;;;;;4971652;28;20484;-52
2023/01/22 01:09:13;;;;;;;4.30;3.60;;;1.50;99.90;;;;;;4970659;28;20563;-51
2023/01/22 01:11:39;;;;;;;3.60;3.20;;;1.40;99.90;;;;;;4969994;28;20501;-53
2023/01/22 01:14:06;;;;;;;4.53;3.20;;;1.40;99.90;;;;;;4970690;28;20839;-53
2023/01/22 01:16:33;;;;;;;2.80;2.60;;;1.40;99.90;;;;;;4970520;28;21057;-52
2023/01/22 01:19:00;;;;;;;3.17;2.93;;;1.30;99.90;;;;;;4970014;28;20610;-52
2023/01/22 01:21:28;;;;;;;3.23;2.93;;;1.30;99.90;;;;;;4964681;28;20478;-53
2023/01/22 01:23:55;;;;;;;3.40;3.10;;;1.30;99.90;;;;;;4970255;28;20507;-53
2023/01/22 01:26:22;;;;;;;3.50;2.70;;;1.30;99.90;;;;;;4967623;28;20521;-53
2023/01/22 01:28:51;;;;;;;3.27;2.70;;;1.30;99.90;;;;;;4970092;28;20533;-53
2023/01/22 01:33:45;;;;;;;3.07;2.87;;;1.20;99.90;;;;;;4981923;23;20617;-52
2023/01/22 01:36:14;;;;;;;3.03;2.83;;;1.20;99.90;;;;;;4971562;28;20562;-52
2023/01/22 01:38:43;;;;;;;3.17;2.70;;;1.20;99.90;;;;;;4967931;28;20983;-51
2023/01/22 01:41:11;;;;;;;3.33;3.03;;;1.20;99.90;;;;;;4971580;28;20477;-51
2023/01/22 01:43:38;;;;;;;3.43;3.23;;;1.20;99.90;;;;;;4970253;28;20555;-51
2023/01/22 01:46:11;;;;;;;5.57;3.93;;;1.20;99.90;;;;;;4970146;28;20461;-51
2023/01/22 01:48:40;;;;;;;3.27;3.00;;;1.20;99.90;;;;;;4969165;28;20551;-52
2023/01/22 01:51:12;;;;;;;2.80;2.60;;;1.20;99.90;;;;;;4971579;28;21024;-52
2023/01/22 01:53:40;;;;;;;2.67;2.47;;;1.20;99.90;;;;;;4970044;28;20558;-52
2023/01/22 01:56:12;;;;;;;12.43;3.43;;;1.20;99.90;;;;;;4970723;28;20520;-53
2023/01/22 01:58:40;;;;;;;2.63;2.47;;;1.20;99.90;;;;;;4970782;28;21002;-52
2023/01/22 02:01:11;;;;;;;4.23;3.90;;;1.20;99.90;;;;;;4967494;28;20499;-51
2023/01/22 02:03:39;;;;;;;8.30;4.50;;;1.10;99.90;;;;;;4969272;28;20567;-52
2023/01/22 02:06:07;;;;;;;4.50;3.70;;;1.10;99.90;;;;;;4965208;28;20539;-51
2023/01/22 02:08:34;;;;;;;2.70;2.53;;;1.10;99.90;;;;;;4963947;28;20512;-51
2023/01/22 02:11:01;;;;;;;3.77;3.00;;;1.20;99.90;;;;;;4962830;28;20556;-53
2023/01/22 02:13:32;;;;;;;7.27;4.33;;;1.10;99.90;;;;;;4960915;28;20572;-53
2023/01/22 02:16:02;;;;;;;12.13;3.60;;;1.10;99.90;;;;;;4965284;28;20568;-53
2023/01/22 02:18:29;;;;;;;7.47;4.67;;;1.10;99.90;;;;;;4965032;28;20496;-54
2023/01/22 02:20:59;;;;;;;7.10;4.70;;;1.10;99.90;;;;;;4964811;28;20499;-54
2023/01/22 02:23:27;;;;;;;8.23;4.20;;;1.00;99.90;;;;;;4969179;28;20480;-52
2023/01/22 02:25:54;;;;;;;4.57;3.70;;;1.00;99.90;;;;;;4966505;28;21082;-54
2023/01/22 02:28:21;;;;;;;6.47;3.60;;;1.00;99.90;;;;;;4967184;28;20465;-53
2023/01/22 02:30:48;;;;;;;5.67;3.40;;;1.00;99.90;;;;;;4966045;28;20458;-54
2023/01/22 02:33:15;;;;;;;5.00;4.70;;;1.10;99.90;;;;;;4967931;28;20529;-54
2023/01/22 02:35:42;;;;;;;4.20;3.80;;;1.00;99.90;;;;;;4971655;28;20499;-53
2023/01/22 02:38:10;;;;;;;3.80;3.60;;;1.00;99.90;;;;;;4970964;28;20595;-54
2023/01/22 02:40:47;;;;;;;3.07;2.87;;;1.00;99.90;;;;;;4969556;28;20504;-54
2023/01/22 02:43:14;;;;;;;2.10;2.00;;;1.00;99.90;;;;;;4970317;28;20575;-53
2023/01/22 02:45:41;;;;;;;2.23;2.13;;;1.00;99.90;;;;;;4970000;28;20563;-54
2023/01/22 02:48:07;;;;;;;2.00;2.00;;;1.10;99.90;;;;;;4973344;28;21126;-52
2023/01/22 02:50:34;;;;;;;1.90;1.80;;;1.00;99.90;;;;;;4973014;28;20492;-53
2023/01/22 02:53:00;;;;;;;1.90;1.87;;;1.00;99.90;;;;;;4975588;28;20526;-54
2023/01/22 02:55:29;;;;;;;2.47;2.37;;;1.10;99.90;;;;;;4972948;28;20472;-53
2023/01/22 02:57:55;;;;;;;2.27;2.07;;;1.00;99.90;;;;;;4973169;28;20502;-53
2023/01/22 03:00:22;;;;;;;3.27;3.07;;;1.00;99.90;;;;;;4972511;28;20903;-53
2023/01/22 03:02:49;;;;;;;2.20;2.00;;;1.00;99.90;;;;;;4974500;28;20916;-54
2023/01/22 03:05:15;;;;;;;2.07;1.97;;;1.10;99.90;;;;;;4973043;28;20499;-53
2023/01/22 03:07:43;;;;;;;1.90;1.83;;;1.00;99.90;;;;;;4973087;28;20979;-53
2023/01/22 03:10:13;;;;;;;2.40;2.20;;;1.00;99.90;;;;;;4970565;28;20476;-53
2023/01/22 03:23:37;;;;;;;2.23;2.13;;;1.00;99.90;;;;;;4971350;28;20480;-53
2023/01/22 03:26:04;;;;;;;2.10;2.00;;;1.00;99.90;;;;;;4974677;28;20472;-53
2023/01/22 03:28:32;;;;;;;2.57;2.47;;;1.00;99.90;;;;;;4971620;28;20464;-54
2023/01/22 03:30:59;;;;;;;2.47;2.30;;;1.00;99.90;;;;;;4974641;28;20492;-54
2023/01/22 03:33:26;;;;;;;2.80;2.60;;;1.00;99.90;;;;;;4975252;28;20508;-54
2023/01/22 03:35:52;;;;;;;2.17;2.07;;;1.00;99.90;;;;;;4973198;28;20551;-54
2023/01/22 03:38:19;;;;;;;2.30;2.20;;;1.00;99.90;;;;;;4968337;28;21006;-54
2023/01/22 03:40:46;;;;;;;2.93;2.53;;;1.10;99.90;;;;;;4969201;28;20599;-54
2023/01/22 03:43:12;;;;;;;2.70;2.60;;;1.00;99.90;;;;;;4970303;28;20515;-54
2023/01/22 03:45:40;;;;;;;2.67;2.50;;;1.00;99.90;;;;;;4973537;28;20483;-54
2023/01/22 03:48:06;;;;;;;2.57;2.37;;;1.00;99.90;;;;;;4974675;28;20492;-54
2023/01/22 03:50:34;;;;;;;3.33;2.80;;;1.00;99.90;;;;;;4970252;28;20507;-54
2023/01/22 03:53:02;;;;;;;2.43;2.23;;;1.00;99.90;;;;;;4976093;28;20516;-54
2023/01/22 03:55:29;;;;;;;3.23;3.00;;;1.00;99.90;;;;;;4971597;28;20469;-53
2023/01/22 03:57:55;;;;;;;2.67;2.47;;;1.10;99.90;;;;;;4973615;28;20516;-52
2023/01/22 04:00:22;;;;;;;3.30;3.10;;;1.00;99.90;;;;;;4971167;28;20523;-53
2023/01/22 04:02:52;;;;;;;3.13;2.90;;;1.00;99.90;;;;;;4972570;28;20520;-53
2023/01/22 04:05:19;;;;;;;3.27;3.07;;;1.10;99.90;;;;;;4974242;28;20975;-54
2023/01/22 04:07:45;;;;;;;3.13;2.80;;;1.10;99.90;;;;;;4973084;28;20544;-52
2023/01/22 04:10:12;;;;;;;3.50;3.30;;;1.10;99.90;;;;;;4972078;28;21005;-54
2023/01/22 04:12:38;;;;;;;3.37;3.13;;;1.10;99.90;;;;;;4972916;28;20885;-52
2023/01/22 04:15:06;;;;;;;2.93;2.57;;;1.10;99.90;;;;;;4972104;28;20523;-53
2023/01/22 04:17:33;;;;;;;2.90;2.70;;;1.10;99.90;;;;;;4973976;28;20535;-52
2023/01/22 04:20:00;;;;;;;2.83;2.63;;;1.10;99.90;;;;;;4973469;28;20504;-53
2023/01/22 04:22:27;;;;;;;2.73;2.53;;;1.10;99.90;;;;;;4973187;28;20528;-53
2023/01/22 04:24:53;;;;;;;2.63;2.30;;;1.10;99.90;;;;;;4969545;28;20591;-53
2023/01/22 04:27:20;;;;;;;2.60;2.50;;;1.10;99.90;;;;;;4967802;28;20563;-52
2023/01/22 04:29:47;;;;;;;2.37;2.27;;;1.10;99.90;;;;;;4970210;28;20548;-54
2023/01/22 04:32:13;;;;;;;2.83;2.73;;;1.10;99.90;;;;;;4971814;28;20938;-54
2023/01/22 04:34:40;;;;;;;1.77;1.67;;;1.10;99.90;;;;;;4970792;28;20979;-54
2023/01/22 04:37:07;;;;;;;2.50;2.30;;;1.10;99.90;;;;;;4968038;28;20580;-53
2023/01/22 04:39:34;;;;;;;2.07;1.97;;;1.10;99.90;;;;;;4969661;28;20556;-54
2023/01/22 04:42:00;;;;;;;2.60;2.40;;;1.10;99.90;;;;;;4972915;28;20516;-54
2023/01/22 04:44:27;;;;;;;2.30;2.17;;;1.10;99.90;;;;;;4969076;28;21002;-54
2023/01/22 04:46:53;;;;;;;3.17;2.93;;;1.10;99.90;;;;;;4970397;28;20512;-54
2023/01/22 04:49:20;;;;;;;3.83;3.20;;;1.10;99.90;;;;;;4970520;28;20500;-53
2023/01/22 04:51:47;;;;;;;4.20;3.80;;;1.10;99.90;;;;;;4972901;28;20523;-54
2023/01/22 04:54:14;;;;;;;2.50;2.40;;;1.10;99.90;;;;;;4971886;28;20519;-53
2023/01/22 04:56:41;;;;;;;2.00;1.90;;;1.10;99.90;;;;;;4966004;28;20857;-52
2023/01/22 04:59:08;;;;;;;4.00;3.10;;;1.10;99.90;;;;;;4973378;28;20497;-53
2023/01/22 05:01:34;;;;;;;2.83;2.60;;;1.10;99.90;;;;;;4970444;28;20496;-53
2023/01/22 05:04:01;;;;;;;2.63;2.43;;;1.20;99.90;;;;;;4971985;28;20492;-54
2023/01/22 05:06:29;;;;;;;2.40;2.30;;;1.20;99.90;;;;;;4970718;28;20523;-54
2023/01/22 05:08:55;;;;;;;2.33;2.23;;;1.20;99.90;;;;;;4971660;28;20535;-54
2023/01/22 05:11:23;;;;;;;2.30;2.20;;;1.20;99.90;;;;;;4970634;28;20564;-53
2023/01/22 05:13:50;;;;;;;2.37;2.27;;;1.20;99.90;;;;;;4971825;28;20554;-54
2023/01/22 05:16:16;;;;;;;1.60;1.60;;;1.20;99.90;;;;;;4971144;28;20496;-53
2023/01/22 05:18:43;;;;;;;2.57;2.37;;;1.20;99.90;;;;;;4970246;28;21045;-52
2023/01/22 05:21:09;;;;;;;2.53;2.33;;;1.20;99.90;;;;;;4972371;28;20505;-54
2023/01/22 05:23:36;;;;;;;2.23;2.13;;;1.20;99.90;;;;;;4972159;28;20519;-52
2023/01/22 05:26:03;;;;;;;2.33;2.23;;;1.20;99.90;;;;;;4968695;28;20977;-53
2023/01/22 05:28:30;;;;;;;2.03;1.93;;;1.20;99.90;;;;;;4972964;28;20492;-53
2023/01/22 05:30:57;;;;;;;2.20;2.10;;;1.20;99.90;;;;;;4972041;28;20559;-53
2023/01/22 05:33:23;;;;;;;2.00;1.90;;;1.20;99.90;;;;;;4966849;28;20532;-53
2023/01/22 05:35:56;;;;;;;2.00;1.90;;;1.20;99.90;;;;;;4970207;28;20503;-53
2023/01/22 05:38:22;;;;;;;2.10;2.00;;;1.20;99.90;;;;;;4967755;28;21031;-52
2023/01/22 05:40:49;;;;;;;2.03;1.93;;;1.20;99.90;;;;;;4966748;28;20907;-53
2023/01/22 05:43:15;;;;;;;1.80;1.70;;;1.20;99.90;;;;;;4972025;28;20648;-53
2023/01/22 05:45:43;;;;;;;1.67;1.67;;;1.20;99.90;;;;;;4967262;28;20555;-54
2023/01/22 05:48:10;;;;;;;1.67;1.67;;;1.20;99.90;;;;;;4972676;28;20865;-52
2023/01/22 05:50:37;;;;;;;1.70;1.70;;;1.30;99.90;;;;;;4973330;28;20500;-53
2023/01/22 05:53:04;;;;;;;1.53;1.43;;;1.30;99.90;;;;;;4968301;28;21072;-53
2023/01/22 05:55:31;;;;;;;1.63;1.57;;;1.30;99.90;;;;;;4968835;28;20492;-52
2023/01/22 05:57:58;;;;;;;1.60;1.50;;;1.30;99.90;;;;;;4968442;28;21086;-53
2023/01/22 06:00:24;;;;;;;1.60;1.60;;;1.30;99.90;;;;;;4967544;28;21046;-52
2023/01/22 06:02:56;;;;;;;1.83;1.73;;;1.30;99.90;;;;;;4970987;28;20536;-53
2023/01/22 06:05:23;;;;;;;1.40;1.30;;;1.30;99.90;;;;;;4970634;28;20507;-53
2023/01/22 06:07:49;;;;;;;1.70;1.67;;;1.30;99.90;;;;;;4971726;28;20970;-53
2023/01/22 06:10:16;;;;;;;1.30;1.30;;;1.30;99.90;;;;;;4967718;28;21029;-53
2023/01/22 06:12:43;;;;;;;1.57;1.47;;;1.30;99.90;;;;;;4972522;28;20507;-53
2023/01/22 06:15:10;;;;;;;1.90;1.83;;;1.30;99.90;;;;;;4969304;28;21007;-53
2023/01/22 06:17:37;;;;;;;1.53;1.53;;;1.30;99.90;;;;;;4972187;28;20496;-53
2023/01/22 06:20:06;;;;;;;1.77;1.67;;;1.30;99.90;;;;;;4970327;28;20506;-54
2023/01/22 06:22:33;;;;;;;1.70;1.60;;;1.30;99.90;;;;;;4970470;28;20527;-54
2023/01/22 06:24:59;;;;;;;2.37;2.27;;;1.40;99.90;;;;;;4968092;28;20552;-53
2023/01/22 06:27:26;;;;;;;1.60;1.50;;;1.30;99.90;;;;;;4969700;28;20546;-53
2023/01/22 06:29:52;;;;;;;1.80;1.70;;;1.40;99.90;;;;;;4970479;28;20499;-52
2023/01/22 06:32:19;;;;;;;1.73;1.73;;;1.30;99.90;;;;;;4969421;28;20931;-53
2023/01/22 06:34:45;;;;;;;1.50;1.50;;;1.30;99.90;;;;;;4969513;28;20489;-53
2023/01/22 06:37:13;;;;;;;2.07;1.97;;;1.40;99.90;;;;;;4967980;28;20495;-54
2023/01/22 06:39:40;;;;;;;2.07;1.97;;;1.40;99.90;;;;;;4971171;28;20887;-53
2023/01/22 06:42:07;;;;;;;2.00;1.90;;;1.30;99.90;;;;;;4967659;28;20605;-54
2023/01/22 06:44:33;;;;;;;2.00;1.90;;;1.30;99.90;;;;;;4971484;28;20497;-53
2023/01/22 06:47:00;;;;;;;1.50;1.50;;;1.40;99.90;;;;;;4971753;28;20484;-54
2023/01/22 06:49:26;;;;;;;2.00;1.90;;;1.40;99.90;;;;;;4967941;28;20552;-55
2023/01/22 06:51:53;;;;;;;1.93;1.83;;;1.40;99.90;;;;;;4967519;28;20517;-52
2023/01/22 06:54:21;;;;;;;1.40;1.40;;;1.40;99.90;;;;;;4971384;28;20532;-53
2023/01/22 06:56:48;;;;;;;1.93;1.83;;;1.40;99.90;;;;;;4969728;28;20468;-53
2023/01/22 06:59:14;;;;;;;2.30;2.10;;;1.40;99.90;;;;;;4969034;28;21090;-52
2023/01/22 07:01:41;;;;;;;2.70;2.50;;;1.40;99.90;;;;;;4966258;28;20476;-53
2023/01/22 07:04:09;;;;;;;4.93;4.53;;;1.40;99.90;;;;;;4968833;28;20835;-53
2023/01/22 07:06:36;;;;;;;3.13;2.90;;;1.40;99.90;;;;;;4965813;28;20465;-53
2023/01/22 07:09:02;;;;;;;2.50;2.40;;;1.50;99.90;;;;;;4964114;28;21181;-53
2023/01/22 07:11:30;;;;;;;2.30;2.20;;;1.40;99.90;;;;;;4964686;28;21836;-53
2023/01/22 07:13:57;;;;;;;2.53;2.33;;;1.50;99.90;;;;;;4966262;28;20819;-53
2023/01/22 07:16:23;;;;;;;2.30;2.20;;;1.40;99.90;;;;;;4970480;28;20501;-52
2023/01/22 07:18:50;;;;;;;2.17;2.07;;;1.40;99.90;;;;;;4970149;28;20588;-52
2023/01/22 07:21:16;;;;;;;2.20;2.10;;;1.40;99.90;;;;;;4968462;28;20504;-52
2023/01/22 07:23:43;;;;;;;2.70;2.60;;;1.50;99.90;;;;;;4967541;28;20516;-53
2023/01/22 07:26:09;;;;;;;3.10;2.90;;;1.40;99.90;;;;;;4968399;28;20460;-52
2023/01/22 07:28:37;;;;;;;2.40;2.30;;;1.50;99.90;;;;;;4970139;28;20465;-52
2023/01/22 07:31:08;;;;;;;2.80;2.70;;;1.50;99.90;;;;;;4963921;28;20551;-53
2023/01/22 07:33:35;;;;;;;2.53;2.43;;;1.50;99.90;;;;;;4968833;28;20566;-53
2023/01/22 07:36:01;;;;;;;2.73;2.50;;;1.50;99.90;;;;;;4970485;28;21030;-53
2023/01/22 07:38:28;;;;;;;2.63;2.47;;;1.50;99.90;;;;;;4969485;28;20579;-52
2023/01/22 07:41:00;;;;;;;2.53;2.43;;;1.50;99.90;;;;;;4972584;28;21086;-52
2023/01/22 07:43:27;;;;;;;2.47;2.37;;;1.50;99.90;;;;;;4968307;28;20516;-53
2023/01/22 07:45:56;;;;;;;3.23;2.93;;;1.50;99.90;;;;;;4971420;28;20500;-51
2023/01/22 07:48:23;;;;;;;2.87;2.77;;;1.50;99.90;;;;;;4973022;28;20511;-52
2023/01/22 07:50:49;;;;;;;2.80;2.70;;;1.50;99.90;;;;;;4973620;28;20469;-52
2023/01/22 07:53:16;;;;;;;2.97;2.87;;;1.50;99.90;;;;;;4972407;28;20520;-52
2023/01/22 07:55:42;;;;;;;3.23;3.03;;;1.50;99.90;;;;;;4971378;28;20911;-52
2023/01/22 07:58:11;;;;;;;3.10;3.00;;;1.50;99.90;;;;;;4970352;28;20586;-53
2023/01/22 08:00:38;;;;;;;3.57;3.33;;;1.60;99.90;;;;;;4972489;28;20576;-53
2023/01/22 08:03:09;;;;;;;3.00;2.80;;;1.60;99.90;;;;;;4972759;28;20487;-52
2023/01/22 08:05:35;;;;;;;3.53;3.33;;;1.60;99.90;;;;;;4966407;28;20468;-53
2023/01/22 08:08:02;;;;;;;3.23;3.03;;;1.60;99.90;;;;;;4965387;28;20488;-52
2023/01/22 08:10:29;;;;;;;3.17;3.07;;;1.60;99.90;;;;;;4967797;28;20551;-52
2023/01/22 08:12:55;;;;;;;3.60;3.30;;;1.60;99.90;;;;;;4967042;28;20485;-52
2023/01/22 08:15:22;;;;;;;3.57;3.37;;;1.50;99.90;;;;;;4966302;28;20588;-52
2023/01/22 08:17:50;;;;;;;3.90;3.60;;;1.60;99.90;;;;;;4965641;28;20615;-53
2023/01/22 08:20:18;;;;;;;6.03;5.53;;;1.60;99.90;;;;;;4967300;28;20539;-51
2023/01/22 08:22:45;;;;;;;4.80;4.30;;;1.60;99.90;;;;;;4967265;28;20596;-51
2023/01/22 08:25:11;;;;;;;3.63;3.33;;;1.60;99.90;;;;;;4969000;28;20500;-52
2023/01/22 08:27:38;;;;;;;4.70;4.40;;;1.60;99.90;;;;;;4965787;28;20524;-53
2023/01/22 08:30:06;;;;;;;4.87;4.47;;;1.70;99.90;;;;;;4964097;28;21042;-53
2023/01/22 08:32:33;;;;;;;4.67;4.17;;;1.70;99.90;;;;;;4961446;28;20499;-53
2023/01/22 08:34:59;;;;;;;4.10;3.80;;;1.70;99.90;;;;;;4965031;28;21018;-52
2023/01/22 08:37:27;;;;;;;4.77;4.37;;;1.70;99.90;;;;;;4973940;28;20452;-52
2023/01/22 08:39:55;;;;;;;4.70;4.20;;;1.70;99.90;;;;;;4970776;28;20520;-52
2023/01/22 08:42:21;;;;;;;5.00;4.20;;;1.70;99.90;;;;;;4973938;28;20487;-54
2023/01/22 08:44:48;;;;;;;4.23;3.93;;;1.70;99.90;;;;;;4968915;28;20580;-52
2023/01/22 08:47:14;;;;;;;4.17;3.87;;;1.70;99.90;;;;;;4972424;28;20524;-52
2023/01/22 08:49:41;;;;;;;5.80;5.30;;;1.70;99.90;;;;;;4971816;28;20496;-51
2023/01/22 08:52:07;;;;;;;4.73;4.37;;;1.80;99.90;;;;;;4972801;28;20648;-51
2023/01/22 08:54:37;;;;;;;5.40;5.00;;;1.70;99.90;;;;;;4969515;28;20496;-54
2023/01/22 08:57:04;;;;;;;6.43;5.60;;;1.80;99.90;;;;;;4968111;28;20555;-53
2023/01/22 08:59:31;;;;;;;5.47;5.07;;;1.80;99.90;;;;;;4971162;28;20487;-53
2023/01/22 09:01:58;;;;;;;4.67;4.27;;;1.90;99.90;;;;;;4970338;28;20484;-52
2023/01/22 09:04:25;;;;;;;4.17;3.90;;;1.90;99.90;;;;;;4972740;28;20583;-52
2023/01/22 09:06:51;;;;;;;4.50;4.20;;;1.90;99.90;;;;;;4968800;28;20501;-51
2023/01/22 09:09:18;;;;;;;4.93;4.53;;;1.90;99.90;;;;;;4963145;28;20528;-52
2023/01/22 09:11:46;;;;;;;4.20;3.90;;;1.90;99.90;;;;;;4968772;28;20575;-51
2023/01/22 09:14:13;;;;;;;3.70;3.50;;;1.90;99.90;;;;;;4972468;28;20508;-51
2023/01/22 09:16:39;;;;;;;4.07;3.60;;;1.90;99.90;;;;;;4967490;28;20552;-51
2023/01/22 09:19:07;;;;;;;3.93;3.73;;;1.90;99.90;;;;;;4963776;28;20521;-51
2023/01/22 09:21:36;;;;;;;4.17;3.87;;;1.90;99.90;;;;;;4967214;28;20476;-52
2023/01/22 09:24:02;;;;;;;3.60;3.40;;;1.90;99.90;;;;;;4969913;28;20555;-53
2023/01/22 09:26:31;;;;;;;4.40;4.00;;;1.90;99.90;;;;;;4966116;28;21044;-51
2023/01/22 09:28:59;;;;;;;4.00;3.70;;;1.80;99.90;;;;;;4969623;28;20462;-51
2023/01/22 09:31:26;;;;;;;4.70;4.30;;;1.90;99.90;;;;;;4967206;28;20515;-52
2023/01/22 09:33:54;;;;;;;4.63;4.20;;;1.90;99.90;;;;;;4971549;28;20464;-51
2023/01/22 09:36:21;;;;;;;4.30;4.00;;;1.90;99.90;;;;;;4970905;28;20472;-51
2023/01/22 09:38:48;;;;;;;4.33;4.00;;;1.90;99.90;;;;;;4974685;28;20487;-52
2023/01/22 09:41:21;;;;;;;3.80;3.50;;;1.90;99.90;;;;;;4973911;28;20476;-51
2023/01/22 09:43:53;;;;;;;5.03;4.63;;;1.90;99.90;;;;;;4972009;28;20999;-52
2023/01/22 09:46:27;;;;;;;4.50;4.10;;;2.00;99.90;;;;;;4970361;28;20500;-52
2023/01/22 09:49:01;;;;;;;6.20;5.47;;;2.00;99.90;;;;;;4967845;28;20471;-52
2023/01/22 09:51:28;;;;;;;5.07;4.53;;;1.90;99.90;;;;;;4968956;28;20457;-51
2023/01/22 09:53:58;;;;;;;4.97;4.60;;;1.90;99.90;;;;;;4970950;28;20974;-52
2023/01/22 09:56:34;;;;;;;4.93;4.50;;;1.90;99.90;;;;;;4966179;28;20559;-53
2023/01/22 09:59:02;;;;;;;4.17;3.87;;;1.90;99.90;;;;;;4963036;28;20492;-51
2023/01/22 10:01:31;;;;;;;4.30;4.00;;;1.90;99.90;;;;;;4965785;28;20495;-51
2023/01/22 10:04:02;;;;;;;3.97;3.70;;;1.90;99.90;;;;;;4969899;28;20493;-52
2023/01/22 10:06:30;;;;;;;4.20;3.90;;;1.90;99.90;;;;;;4965006;28;20466;-51
2023/01/22 10:09:03;;;;;;;4.03;3.73;;;2.00;99.90;;;;;;4968497;28;20555;-52
2023/01/22 10:11:30;;;;;;;4.40;4.00;;;2.00;99.90;;;;;;4968827;28;20493;-51
2023/01/22 10:13:59;;;;;;;3.70;3.50;;;2.00;99.90;;;;;;4967867;28;20497;-53
2023/01/22 10:16:25;;;;;;;4.33;3.90;;;2.00;99.90;;;;;;4969177;28;20492;-52
2023/01/22 10:18:58;;;;;;;3.93;3.70;;;2.00;99.90;;;;;;4967871;28;20578;-52
2023/01/22 10:21:27;;;;;;;4.23;3.90;;;2.00;99.90;;;;;;4969599;28;20543;-52
2023/01/22 10:23:56;;;;;;;4.30;4.00;;;2.00;99.90;;;;;;4966394;28;20479;-52
2023/01/22 10:26:32;;;;;;;4.60;4.30;;;2.00;99.90;;;;;;4970320;28;20559;-50
2023/01/22 10:29:05;;;;;;;4.60;4.30;;;2.10;99.90;;;;;;4968291;28;20916;-51
2023/01/22 10:31:33;;;;;;;5.00;4.60;;;2.10;99.90;;;;;;4966890;28;20464;-51
2023/01/22 10:34:03;;;;;;;4.20;3.90;;;2.00;99.90;;;;;;4965365;28;20552;-52
2023/01/22 10:36:31;;;;;;;6.03;4.53;;;2.10;99.90;;;;;;4967655;28;20560;-50
2023/01/22 10:39:05;;;;;;;4.30;4.00;;;2.10;99.90;;;;;;4969844;28;20543;-51
2023/01/22 10:41:32;;;;;;;4.63;4.27;;;2.10;99.90;;;;;;4967021;28;20974;-52
2023/01/22 10:44:08;;;;;;;4.80;4.40;;;2.20;99.90;;;;;;4967170;28;20560;-51
2023/01/22 10:46:34;;;;;;;4.97;4.47;;;2.20;99.90;;;;;;4968067;28;20460;-51
2023/01/22 10:49:07;;;;;;;4.70;4.30;;;2.10;99.90;;;;;;4968491;28;20560;-52
2023/01/22 10:51:37;;;;;;;4.90;4.50;;;2.20;99.90;;;;;;4970895;28;20471;-53
2023/01/22 10:54:14;;;;;;;4.70;4.40;;;2.10;99.90;;;;;;4967232;28;20503;-52
2023/01/22 10:56:40;;;;;;;4.70;4.30;;;2.00;99.90;;;;;;4966431;28;20539;-51
2023/01/22 10:59:19;;;;;;;4.57;4.17;;;2.10;99.90;;;;;;4968484;28;20491;-51
2023/01/22 11:01:47;;;;;;;4.03;3.73;;;2.10;99.90;;;;;;4967410;28;20516;-51
2023/01/22 11:04:22;;;;;;;5.13;4.63;;;2.10;99.90;;;;;;4968730;28;21192;-51
2023/01/22 11:06:52;;;;;;;4.70;4.30;;;2.10;99.90;;;;;;4972016;28;20479;-52
2023/01/22 11:09:23;;;;;;;4.50;4.20;;;2.10;99.90;;;;;;4973187;28;20497;-52
2023/01/22 11:11:56;;;;;;;4.40;4.10;;;2.10;99.90;;;;;;4969755;28;20613;-52
2023/01/22 11:14:27;;;;;;;5.53;4.83;;;2.10;99.90;;;;;;4971185;28;20501;-52
2023/01/22 11:16:58;;;;;;;4.43;4.03;;;2.10;99.90;;;;;;4973707;28;20543;-51
2023/01/22 11:19:33;;;;;;;4.13;3.83;;;2.10;99.90;;;;;;4973941;28;20600;-53
2023/01/22 11:22:00;;;;;;;3.70;3.40;;;2.10;99.90;;;;;;4970529;28;20519;-51
2023/01/22 11:24:33;;;;;;;4.17;3.87;;;2.20;99.90;;;;;;4971407;28;20520;-51
2023/01/22 11:27:18;;;;;;;3.67;3.47;;;2.20;99.90;;;;;;4973245;28;20500;-51
2023/01/22 11:29:59;;;;;;;4.17;3.80;;;2.10;99.90;;;;;;4970532;28;20459;-52
2023/01/22 11:32:50;;;;;;;4.27;4.00;;;2.10;99.90;;;;;;4971454;28;20538;-52
2023/01/22 11:35:24;;;;;;;4.80;4.47;;;2.10;99.90;;;;;;4967967;28;20495;-51
2023/01/22 11:38:03;;;;;;;4.80;4.40;;;2.20;99.90;;;;;;4970640;28;20476;-53
2023/01/22 11:40:31;;;;;;;4.07;3.77;;;2.20;99.90;;;;;;4972320;28;20625;-52
2023/01/22 11:43:24;;;;;;;5.07;4.57;;;2.20;99.90;;;;;;4970378;28;20566;-51
2023/01/22 11:46:09;;;;;;;5.43;4.93;;;2.20;99.90;;;;;;4966488;28;21020;-52
2023/01/22 11:48:59;;;;;;;5.77;5.27;;;2.20;99.90;;;;;;4967851;28;20493;-52
2023/01/22 11:51:35;;;;;;;5.23;4.83;;;2.30;99.90;;;;;;4965650;28;20571;-52
2023/01/22 11:54:18;;;;;;;6.53;5.93;;;2.30;99.90;;;;;;4965770;28;20518;-51
2023/01/22 11:57:16;;;;;;;4.90;4.60;;;2.30;99.90;;;;;;4967762;28;20470;-52
2023/01/22 12:00:15;;;;;;;5.90;5.40;;;2.30;99.90;;;;;;4965472;28;20505;-52
2023/01/22 12:03:20;;;;;;;5.87;5.37;;;2.20;99.90;;;;;;4967716;28;20487;-52
2023/01/22 12:05:55;;;;;;;5.20;4.80;;;2.30;99.90;;;;;;4970405;28;20507;-53
2023/01/22 12:08:38;;;;;;;4.90;4.50;;;2.30;99.90;;;;;;4970580;28;21234;-53
2023/01/22 12:11:35;;;;;;;5.53;5.03;;;2.20;99.90;;;;;;4967555;28;20508;-52
2023/01/22 12:14:35;;;;;;;5.60;5.20;;;2.20;99.90;;;;;;4965196;28;20508;-55
2023/01/22 12:17:11;;;;;;;7.70;5.80;;;2.20;99.90;;;;;;4969820;28;20493;-52
2023/01/22 12:20:00;;;;;;;5.47;4.97;;;2.20;99.90;;;;;;4966923;28;20512;-51
2023/01/22 12:22:33;;;;;;;4.80;4.40;;;2.20;99.90;;;;;;4969100;28;20485;-51
2023/01/22 12:25:10;;;;;;;5.93;5.43;;;2.20;99.90;;;;;;4967462;28;20494;-51
2023/01/22 12:27:40;;;;;;;5.00;4.60;;;2.20;99.90;;;;;;4968464;28;21029;-52
2023/01/22 12:30:17;;;;;;;5.83;5.33;;;2.20;99.90;;;;;;4969778;28;20489;-53
2023/01/22 12:32:49;;;;;;;7.07;6.30;;;2.10;99.90;;;;;;4966147;28;21060;-52
2023/01/22 12:35:17;;;;;;;5.57;5.07;;;2.20;99.90;;;;;;4972161;28;20453;-52
2023/01/22 12:37:48;;;;;;;6.80;5.20;;;2.10;99.90;;;;;;4965730;28;20496;-52
2023/01/22 12:40:28;;;;;;;7.60;5.70;;;2.10;99.90;;;;;;4971563;28;20501;-53
2023/01/22 12:43:00;;;;;;;6.83;5.70;;;2.10;99.90;;;;;;4969979;28;20480;-52
2023/01/22 12:45:38;;;;;;;5.43;5.03;;;2.00;99.90;;;;;;4969165;28;20460;-51
2023/01/22 12:48:12;;;;;;;7.43;6.07;;;2.10;99.90;;;;;;4972955;28;20464;-52
2023/01/22 12:50:48;;;;;;;7.20;6.50;;;2.10;99.90;;;;;;4970163;28;20501;-51
2023/01/22 12:53:23;;;;;;;7.00;6.30;;;2.20;99.90;;;;;;4970724;28;20534;-51
2023/01/22 12:56:00;;;;;;;8.10;7.00;;;2.10;99.90;;;;;;4963406;28;20499;-51
2023/01/22 12:58:30;;;;;;;8.00;7.17;;;2.10;99.90;;;;;;4968805;28;21030;-51
2023/01/22 13:01:01;;;;;;;8.03;7.23;;;2.10;99.90;;;;;;4962584;28;21029;-51
2023/01/22 13:03:28;;;;;;;7.90;7.10;;;2.10;99.90;;;;;;4965047;28;20547;-51
2023/01/22 13:05:56;;;;;;;7.10;6.50;;;2.20;99.90;;;;;;4969932;28;20546;-52
2023/01/22 13:08:34;;;;;;;7.77;6.93;;;2.10;99.90;;;;;;4970445;28;20473;-53
2023/01/22 13:11:05;;;;;;;10.00;8.10;;;2.10;99.90;;;;;;4966658;28;20462;-52
2023/01/22 13:13:34;;;;;;;10.50;8.50;;;2.20;99.90;;;;;;4967986;28;20572;-52
2023/01/22 13:16:03;;;;;;;8.47;7.57;;;2.20;99.90;;;;;;4973606;28;20452;-53
2023/01/22 13:18:34;;;;;;;7.83;6.90;;;2.20;99.90;;;;;;4973806;28;20490;-51
2023/01/22 13:21:04;;;;;;;9.10;7.60;;;2.20;99.90;;;;;;4970568;28;20512;-51